Time,TemperatureF,DewpointF,PressureIn,WindDirection,WindDirectionDegrees,WindSpeedMPH,WindSpeedGustMPH,Humidity,HourlyPrecipIn,Conditions,Clouds,dailyrainin,SoftwareType,DateUTC
2013-07-24 00:08:00,71.0,70.0,29.60,WSW,245,1.0,4.0,98,0.00,,,0.00,weatherlink.com 1.10,2013-07-24 04:08:00,
2013-07-24 00:23:00,70.8,70.0,29.61,West,261,2.0,3.0,98,0.00,,,0.00,weatherlink.com 1.10,2013-07-24 04:23:00,
2013-07-24 00:38:00,70.8,70.0,29.60,West,261,0.0,1.0,98,0.00,,,0.00,weatherlink.com 1.10,2013-07-24 04:38:00,
2013-07-24 00:53:00,71.2,71.0,29.59,West,280,1.0,5.0,98,0.00,,,0.00,weatherlink.com 1.10,2013-07-24 04:53:00,
2013-07-24 01:08:00,71.1,71.0,29.60,West,280,1.0,2.0,98,0.00,,,0.00,weatherlink.com 1.10,2013-07-24 05:08:00,
2013-07-24 01:23:00,71.2,71.0,29.59,West,280,1.0,4.0,98,0.00,,,0.00,weatherlink.com 1.10,2013-07-24 05:23:00,
2013-07-24 01:38:00,71.2,71.0,29.59,West,280,4.0,5.0,98,0.00,,,0.00,weatherlink.com 1.10,2013-07-24 05:38:00,
2013-07-24 01:53:00,71.2,71.0,29.59,WNW,285,5.0,5.0,98,0.00,,,0.00,weatherlink.com 1.10,2013-07-24 05:53:00,
2013-07-24 02:08:00,71.2,71.0,29.60,WNW,291,3.0,3.0,98,0.00,,,0.00,weatherlink.com 1.10,2013-07-24 06:08:00,
2013-07-24 02:23:00,71.3,71.0,29.59,WNW,291,0.0,4.0,98,0.00,,,0.00,weatherlink.com 1.10,2013-07-24 06:23:00,
2013-07-24 02:38:00,71.1,71.0,29.59,WNW,290,1.0,3.0,98,0.00,,,0.00,weatherlink.com 1.10,2013-07-24 06:38:00,
2013-07-24 02:54:00,71.2,71.0,29.59,WNW,290,3.0,4.0,98,0.00,,,0.00,weatherlink.com 1.10,2013-07-24 06:54:00,
2013-07-24 03:08:00,71.2,71.0,29.59,WNW,290,0.0,1.0,98,0.00,,,0.00,weatherlink.com 1.10,2013-07-24 07:08:00,
2013-07-24 03:23:00,71.2,71.0,29.59,WNW,290,0.0,4.0,98,0.00,,,0.00,weatherlink.com 1.10,2013-07-24 07:23:00,
2013-07-24 03:39:00,71.1,71.0,29.59,WNW,290,0.0,2.0,98,0.00,,,0.00,weatherlink.com 1.10,2013-07-24 07:39:00,
2013-07-24 03:54:00,71.1,71.0,29.59,WNW,288,0.0,5.0,98,0.00,,,0.00,weatherlink.com 1.10,2013-07-24 07:54:00,
2013-07-24 04:09:00,71.1,71.0,29.59,WNW,288,2.0,4.0,98,0.00,,,0.00,weatherlink.com 1.10,2013-07-24 08:09:00,
2013-07-24 04:24:00,71.1,71.0,29.60,WNW,288,0.0,4.0,98,0.00,,,0.00,weatherlink.com 1.10,2013-07-24 08:24:00,
2013-07-24 04:39:00,71.0,70.0,29.59,WNW,288,2.0,3.0,98,0.00,,,0.00,weatherlink.com 1.10,2013-07-24 08:39:00,
2013-07-24 04:54:00,71.0,70.0,29.59,WNW,288,2.0,3.0,98,0.00,,,0.00,weatherlink.com 1.10,2013-07-24 08:54:00,
2013-07-24 05:09:00,70.9,70.0,29.60,WNW,288,0.0,5.0,98,0.00,,,0.00,weatherlink.com 1.10,2013-07-24 09:09:00,
2013-07-24 05:24:00,70.9,70.0,29.60,WNW,288,0.0,2.0,98,0.00,,,0.00,weatherlink.com 1.10,2013-07-24 09:24:00,
2013-07-24 05:39:00,70.9,70.0,29.60,WNW,288,0.0,1.0,98,0.00,,,0.00,weatherlink.com 1.10,2013-07-24 09:39:00,
2013-07-24 05:54:00,70.5,70.0,29.60,WNW,288,0.0,0.0,98,0.00,,,0.00,weatherlink.com 1.10,2013-07-24 09:54:00,
2013-07-24 06:09:00,71.0,70.0,29.61,WNW,288,0.0,4.0,98,0.00,,,0.00,weatherlink.com 1.10,2013-07-24 10:09:00,
2013-07-24 06:24:00,71.1,71.0,29.61,WNW,288,0.0,2.0,98,0.00,,,0.00,weatherlink.com 1.10,2013-07-24 10:24:00,
2013-07-24 06:39:00,71.3,71.0,29.61,West,281,0.0,4.0,98,0.00,,,0.00,weatherlink.com 1.10,2013-07-24 10:39:00,
2013-07-24 06:54:00,71.7,71.0,29.61,West,281,0.0,5.0,98,0.00,,,0.00,weatherlink.com 1.10,2013-07-24 10:54:00,
2013-07-24 07:09:00,72.2,72.0,29.62,West,281,0.0,4.0,98,0.00,,,0.00,weatherlink.com 1.10,2013-07-24 11:09:00,
2013-07-24 07:24:00,73.3,73.0,29.62,NW,313,0.0,4.0,98,0.00,,,0.00,weatherlink.com 1.10,2013-07-24 11:24:00,
2013-07-24 07:39:00,73.9,73.0,29.62,NW,313,0.0,2.0,98,0.00,,,0.00,weatherlink.com 1.10,2013-07-24 11:39:00,
2013-07-24 07:54:00,73.6,72.0,29.63,NW,313,1.0,2.0,96,0.00,,,0.00,weatherlink.com 1.10,2013-07-24 11:54:00,
2013-07-24 08:11:00,74.7,73.0,29.63,WNW,294,0.0,5.0,94,0.00,,,0.00,weatherlink.com 1.10,2013-07-24 12:11:00,
2013-07-24 08:24:00,75.7,74.0,29.64,WNW,288,2.0,5.0,93,0.00,,,0.00,weatherlink.com 1.10,2013-07-24 12:24:00,
2013-07-24 08:39:00,76.7,73.0,29.64,WNW,288,0.0,4.0,89,0.00,,,0.00,weatherlink.com 1.10,2013-07-24 12:39:00,
2013-07-24 08:54:00,77.1,73.0,29.64,WNW,288,2.0,5.0,86,0.00,,,0.00,weatherlink.com 1.10,2013-07-24 12:54:00,
2013-07-24 09:09:00,78.2,74.0,29.65,WSW,255,1.0,4.0,87,0.00,,,0.00,weatherlink.com 1.10,2013-07-24 13:09:00,
2013-07-24 09:24:00,78.8,73.0,29.65,WNW,289,3.0,7.0,82,0.00,,,0.00,weatherlink.com 1.10,2013-07-24 13:24:00,
2013-07-24 09:39:00,79.2,73.0,29.66,WNW,292,0.0,7.0,82,0.00,,,0.00,weatherlink.com 1.10,2013-07-24 13:39:00,
2013-07-24 09:54:00,79.6,72.0,29.66,NW,321,2.0,8.0,78,0.00,,,0.00,weatherlink.com 1.10,2013-07-24 13:54:00,
2013-07-24 10:09:00,80.2,71.0,29.66,WNW,300,1.0,6.0,74,0.00,,,0.00,weatherlink.com 1.10,2013-07-24 14:09:00,
2013-07-24 10:25:00,81.2,71.0,29.66,WNW,300,4.0,7.0,71,0.00,,,0.00,weatherlink.com 1.10,2013-07-24 14:25:00,
2013-07-24 10:40:00,80.9,70.0,29.67,NW,322,4.0,9.0,70,0.00,,,0.00,weatherlink.com 1.10,2013-07-24 14:40:00,
2013-07-24 10:55:00,81.6,71.0,29.67,WNW,299,2.0,8.0,70,0.00,,,0.00,weatherlink.com 1.10,2013-07-24 14:55:00,
2013-07-24 11:10:00,82.7,70.0,29.68,West,281,2.0,6.0,66,0.00,,,0.00,weatherlink.com 1.10,2013-07-24 15:10:00,
2013-07-24 11:25:00,83.0,70.0,29.68,NNW,337,6.0,11.0,65,0.00,,,0.00,weatherlink.com 1.10,2013-07-24 15:25:00,
2013-07-24 11:40:00,83.6,70.0,29.68,West,281,3.0,8.0,64,0.00,,,0.00,weatherlink.com 1.10,2013-07-24 15:40:00,
2013-07-24 11:55:00,83.5,70.0,29.69,WNW,301,2.0,8.0,64,0.00,,,0.00,weatherlink.com 1.10,2013-07-24 15:55:00,
2013-07-24 12:10:00,83.8,71.0,29.69,WNW,290,0.0,10.0,65,0.00,,,0.00,weatherlink.com 1.10,2013-07-24 16:10:00,
2013-07-24 12:25:00,84.1,71.0,29.69,NW,321,2.0,11.0,64,0.00,,,0.00,weatherlink.com 1.10,2013-07-24 16:25:00,
2013-07-24 12:40:00,84.1,70.0,29.69,WNW,298,2.0,10.0,62,0.00,,,0.00,weatherlink.com 1.10,2013-07-24 16:40:00,
2013-07-24 12:55:00,82.6,70.0,29.69,WNW,298,4.0,8.0,65,0.00,,,0.00,weatherlink.com 1.10,2013-07-24 16:55:00,
2013-07-24 13:10:00,83.3,68.0,29.69,NW,317,6.0,12.0,61,0.00,,,0.00,weatherlink.com 1.10,2013-07-24 17:10:00,
2013-07-24 13:25:00,83.5,68.0,29.69,NW,306,5.0,13.0,60,0.00,,,0.00,weatherlink.com 1.10,2013-07-24 17:25:00,
2013-07-24 13:40:00,83.1,69.0,29.69,WNW,300,2.0,10.0,63,0.00,,,0.00,weatherlink.com 1.10,2013-07-24 17:40:00,
2013-07-24 13:55:00,83.3,67.0,29.69,NW,305,4.0,10.0,58,0.00,,,0.00,weatherlink.com 1.10,2013-07-24 17:55:00,
2013-07-24 14:10:00,82.9,68.0,29.70,SW,224,2.0,12.0,60,0.00,,,0.00,weatherlink.com 1.10,2013-07-24 18:10:00,
2013-07-24 14:25:00,82.4,67.0,29.70,WNW,295,6.0,10.0,60,0.00,,,0.00,weatherlink.com 1.10,2013-07-24 18:25:00,
2013-07-24 14:40:00,82.7,68.0,29.70,WNW,287,6.0,11.0,62,0.00,,,0.00,weatherlink.com 1.10,2013-07-24 18:40:00,
2013-07-24 14:55:00,82.3,67.0,29.71,NNW,338,5.0,11.0,60,0.00,,,0.00,weatherlink.com 1.10,2013-07-24 18:55:00,
2013-07-24 15:10:00,82.6,68.0,29.71,WNW,293,8.0,11.0,61,0.00,,,0.00,weatherlink.com 1.10,2013-07-24 19:10:00,
2013-07-24 15:25:00,83.4,66.0,29.71,NW,320,5.0,16.0,56,0.00,,,0.00,weatherlink.com 1.10,2013-07-24 19:25:00,
2013-07-24 15:40:00,82.8,66.0,29.72,NW,304,6.0,10.0,58,0.00,,,0.00,weatherlink.com 1.10,2013-07-24 19:40:00,
2013-07-24 16:10:00,82.5,66.0,29.73,NW,319,3.0,14.0,57,0.00,,,0.00,weatherlink.com 1.10,2013-07-24 20:10:00,
2013-07-24 16:25:00,82.5,66.0,29.73,WNW,284,3.0,12.0,57,0.00,,,0.00,weatherlink.com 1.10,2013-07-24 20:25:00,
2013-07-24 16:40:00,82.7,67.0,29.73,NW,325,1.0,9.0,59,0.00,,,0.00,weatherlink.com 1.10,2013-07-24 20:40:00,
2013-07-24 16:55:00,83.0,66.0,29.73,NW,322,1.0,10.0,57,0.00,,,0.00,weatherlink.com 1.10,2013-07-24 20:55:00,
2013-07-24 17:10:00,82.2,66.0,29.74,NNW,347,0.0,12.0,59,0.00,,,0.00,weatherlink.com 1.10,2013-07-24 21:10:00,
2013-07-24 17:25:00,81.5,66.0,29.74,NNW,331,0.0,8.0,59,0.00,,,0.00,weatherlink.com 1.10,2013-07-24 21:25:00,
2013-07-24 17:40:00,81.3,66.0,29.75,West,275,1.0,10.0,60,0.00,,,0.00,weatherlink.com 1.10,2013-07-24 21:40:00,
2013-07-24 17:55:00,81.9,66.0,29.75,NNW,340,2.0,9.0,58,0.00,,,0.00,weatherlink.com 1.10,2013-07-24 21:55:00,
2013-07-24 18:10:00,80.7,66.0,29.75,NNW,348,3.0,11.0,62,0.00,,,0.00,weatherlink.com 1.10,2013-07-24 22:10:00,
2013-07-24 18:25:00,80.3,66.0,29.76,NNW,347,0.0,9.0,62,0.00,,,0.00,weatherlink.com 1.10,2013-07-24 22:25:00,
2013-07-24 18:41:00,80.5,64.0,29.77,North,5,1.0,9.0,57,0.00,,,0.00,weatherlink.com 1.10,2013-07-24 22:41:00,
2013-07-24 18:56:00,79.0,65.0,29.78,North,10,1.0,6.0,63,0.00,,,0.00,weatherlink.com 1.10,2013-07-24 22:56:00,
2013-07-24 19:11:00,77.9,64.0,29.79,NNE,32,6.0,12.0,63,0.00,,,0.00,weatherlink.com 1.10,2013-07-24 23:11:00,
2013-07-24 19:26:00,76.9,64.0,29.80,NNE,33,3.0,12.0,64,0.00,,,0.00,weatherlink.com 1.10,2013-07-24 23:26:00,
2013-07-24 19:41:00,76.7,64.0,29.80,NNE,30,6.0,9.0,64,0.00,,,0.00,weatherlink.com 1.10,2013-07-24 23:41:00,
2013-07-24 19:56:00,76.6,63.0,29.82,North,9,6.0,10.0,64,0.00,,,0.00,weatherlink.com 1.10,2013-07-24 23:56:00,
2013-07-24 20:11:00,76.3,63.0,29.82,NNE,31,1.0,8.0,64,0.00,,,0.00,weatherlink.com 1.10,2013-07-25 00:11:00,
2013-07-24 20:26:00,76.2,63.0,29.84,NNE,31,0.0,7.0,63,0.00,,,0.00,weatherlink.com 1.10,2013-07-25 00:26:00,
2013-07-24 20:41:00,75.9,62.0,29.85,NE,38,4.0,6.0,62,0.00,,,0.00,weatherlink.com 1.10,2013-07-25 00:41:00,
2013-07-24 21:11:00,74.9,63.0,29.87,NE,49,3.0,13.0,66,0.00,,,0.00,weatherlink.com 1.10,2013-07-25 01:11:00,
2013-07-24 21:26:00,74.0,63.0,29.88,East,84,5.0,11.0,68,0.00,,,0.00,weatherlink.com 1.10,2013-07-25 01:26:00,
2013-07-24 21:56:00,72.6,62.0,29.89,North,5,5.0,19.0,69,0.00,,,0.00,weatherlink.com 1.10,2013-07-25 01:56:00,
2013-07-24 22:26:00,71.3,61.0,29.91,East,90,6.0,18.0,69,0.00,,,0.00,weatherlink.com 1.10,2013-07-25 02:26:00,
2013-07-24 22:41:00,70.7,60.0,29.91,NNE,17,5.0,15.0,69,0.00,,,0.00,weatherlink.com 1.10,2013-07-25 02:41:00,
2013-07-24 22:56:00,70.1,59.0,29.92,ENE,67,9.0,16.0,68,0.00,,,0.00,weatherlink.com 1.10,2013-07-25 02:56:00,
2013-07-24 23:11:00,69.6,58.0,29.93,ENE,61,8.0,19.0,66,0.00,,,0.00,weatherlink.com 1.10,2013-07-25 03:11:00,
2013-07-24 23:26:00,68.9,57.0,29.93,NNE,33,11.0,18.0,67,0.00,,,0.00,weatherlink.com 1.10,2013-07-25 03:26:00,
2013-07-24 23:41:00,68.6,57.0,29.95,ENE,72,11.0,19.0,67,0.00,,,0.00,weatherlink.com 1.10,2013-07-25 03:41:00,
2013-07-24 23:56:00,67.8,57.0,29.95,ENE,65,4.0,18.0,68,0.00,,,0.00,weatherlink.com 1.10,2013-07-25 03:56:00,